Banner Elk, NC

5:58 AM EDT on July 24, 2016 (GMT -0400)
Rocky Parkway | | Change Station

Elev 4905 ft 36.20 °N, 81.85 °W | Updated 14 minutes ago

Clear
Clear
66.8 °F
Feels Like 66.8 °F
N
1.0
Wind Variable Wind from NW
Gusts 3.0 mph

Today
High -- | Low -- °F
--% Chance of Precip.
Yesterday
High -- | Low -- °F
Precip. -- in
Pressure 30.17 in
Visibility 7.0 miles
Clouds Clear
Dew Point 62 °F
Humidity 84%
Rainfall 0.00 in
Snow Depth Not available.
6:28 AM 8:38 PM
Waning Gibbous, 77% visible
METAR KTNB 240955Z AUTO 00000KT 7SM CLR 17/17 A3017 RMK AO2 T01730173
Pressure 30.17 in
Visibility 7.0 miles
Clouds Clear
Dew Point 62 °F
Humidity 84%
Rainfall 0.00 in
Snow Depth Not available.
6:28 AM 8:38 PM
Waning Gibbous, 77% visible
METAR KTNB 240955Z AUTO 00000KT 7SM CLR 17/17 A3017 RMK AO2 T01730173

10-Day Weather Forecast

Almanac

Astronomy

Jul. 24, 2016 Rise Set
Actual Time
Civil Twilight
Nautical Twilight
Astronomical Twilight
Moon
Length of Visible Light
Length of Day
Tomorrow will be .
, % of the Moon is Illuminated

Today's Extremes

State Highs State Lows

Community

WunderPhotos

Upload Photos

1,927,042 photos uploaded!

WunderBlog® & News

Nearby

Air Quality

  Air Quality AQ Index Pollutant
Not available.

Snow Depth

Station Depth Elevation

Earthquake Activity

City Distance Mag. Time & Date
Minimum magnitude displayed is 2.5.

Coastal Water Temperatures

Place Temperature

Stations

Nearby Weather Stations

Station Location Temp. Windchill Dew Point Humidity Wind Precip. Elev Updated Type
                   

Watches & Warnings

There are currently no watches in effect.